sensor_id;sensor_type;location;lat;lon;timestamp;pressure;altitude;pressure_sealevel;temperature;humidity
63819;BME280;49970;54.976;73.248;2024-02-26T00:00:01;101942.91;;;-8.08;91.21
63819;BME280;49970;54.976;73.248;2024-02-26T00:02:30;101941.19;;;-8.09;90.16
63819;BME280;49970;54.976;73.248;2024-02-26T00:04:59;101927.19;;;-8.18;91.04
63819;BME280;49970;54.976;73.248;2024-02-26T00:07:25;101934.97;;;-8.15;91.30
63819;BME280;49970;54.976;73.248;2024-02-26T00:10:12;101941.91;;;-8.13;91.32
63819;BME280;49970;54.976;73.248;2024-02-26T00:13:48;101953.78;;;-8.16;90.20
63819;BME280;49970;54.976;73.248;2024-02-26T00:17:43;101950.25;;;-8.20;91.28
63819;BME280;49970;54.976;73.248;2024-02-26T00:21:40;101950.16;;;-8.23;90.61
63819;BME280;49970;54.976;73.248;2024-02-26T00:25:35;101951.75;;;-8.27;90.57
63819;BME280;49970;54.976;73.248;2024-02-26T00:29:31;101945.66;;;-8.30;90.38
63819;BME280;49970;54.976;73.248;2024-02-26T00:33:27;101951.53;;;-8.33;90.05
63819;BME280;49970;54.976;73.248;2024-02-26T00:37:23;101954.81;;;-8.40;89.85
63819;BME280;49970;54.976;73.248;2024-02-26T00:40:35;101966.84;;;-8.37;90.98
63819;BME280;49970;54.976;73.248;2024-02-26T00:43:01;101965.97;;;-8.38;90.84
63819;BME280;49970;54.976;73.248;2024-02-26T00:45:27;101956.53;;;-8.39;89.68
63819;BME280;49970;54.976;73.248;2024-02-26T00:47:54;101960.00;;;-8.37;90.75
63819;BME280;49970;54.976;73.248;2024-02-26T00:50:20;101964.28;;;-8.37;91.01
63819;BME280;49970;54.976;73.248;2024-02-26T00:52:46;101961.72;;;-8.37;90.16
63819;BME280;49970;54.976;73.248;2024-02-26T00:55:13;101969.47;;;-8.36;90.52
63819;BME280;49970;54.976;73.248;2024-02-26T00:57:39;101962.53;;;-8.38;90.35
63819;BME280;49970;54.976;73.248;2024-02-26T01:00:07;101981.47;;;-8.35;90.39
63819;BME280;49970;54.976;73.248;2024-02-26T01:02:36;101976.34;;;-8.35;90.37
63819;BME280;49970;54.976;73.248;2024-02-26T01:05:03;101982.31;;;-8.36;90.94
63819;BME280;49970;54.976;73.248;2024-02-26T01:07:29;101983.19;;;-8.35;91.06
63819;BME280;49970;54.976;73.248;2024-02-26T01:10:02;101977.13;;;-8.37;90.23
63819;BME280;49970;54.976;73.248;2024-02-26T01:12:29;101977.97;;;-8.38;91.08
63819;BME280;49970;54.976;73.248;2024-02-26T01:14:55;101969.31;;;-8.40;90.46
63819;BME280;49970;54.976;73.248;2024-02-26T01:17:22;101978.00;;;-8.37;90.50
63819;BME280;49970;54.976;73.248;2024-02-26T01:19:48;101979.69;;;-8.37;90.81
63819;BME280;49970;54.976;73.248;2024-02-26T01:22:14;101977.97;;;-8.38;90.28
63819;BME280;49970;54.976;73.248;2024-02-26T01:24:41;101989.13;;;-8.36;90.82
63819;BME280;49970;54.976;73.248;2024-02-26T01:27:07;101964.03;;;-8.45;90.30
63819;BME280;49970;54.976;73.248;2024-02-26T01:29:35;101977.13;;;-8.37;89.88
63819;BME280;49970;54.976;73.248;2024-02-26T01:32:01;101974.44;;;-8.40;90.18
63819;BME280;49970;54.976;73.248;2024-02-26T01:34:27;101974.56;;;-8.37;91.01
63819;BME280;49970;54.976;73.248;2024-02-26T01:37:14;101971.09;;;-8.39;90.20
63819;BME280;49970;54.976;73.248;2024-02-26T01:44:18;101970.09;;;-8.43;90.81
63819;BME280;49970;54.976;73.248;2024-02-26T01:47:52;101976.00;;;-8.45;89.84
63819;BME280;49970;54.976;73.248;2024-02-26T01:56:06;101981.88;;;-8.49;90.25
63819;BME280;49970;54.976;73.248;2024-02-26T01:59:37;101953.13;;;-8.65;90.01
63819;BME280;49970;54.976;73.248;2024-02-26T02:03:08;101964.31;;;-8.63;89.59
63819;BME280;49970;54.976;73.248;2024-02-26T02:07:04;101971.50;;;-8.52;90.50
63819;BME280;49970;54.976;73.248;2024-02-26T02:10:59;101987.72;;;-8.54;90.79
63819;BME280;49970;54.976;73.248;2024-02-26T02:14:55;101998.44;;;-8.65;89.23
63819;BME280;49970;54.976;73.248;2024-02-26T02:18:52;101970.59;;;-8.79;90.56
63819;BME280;49970;54.976;73.248;2024-02-26T02:22:48;101988.38;;;-8.61;90.30
63819;BME280;49970;54.976;73.248;2024-02-26T02:26:43;101991.84;;;-8.59;91.21
63819;BME280;49970;54.976;73.248;2024-02-26T02:30:34;101996.94;;;-8.60;89.48
63819;BME280;49970;54.976;73.248;2024-02-26T02:34:31;101997.72;;;-8.61;89.80
63819;BME280;49970;54.976;73.248;2024-02-26T02:38:27;102002.13;;;-8.59;90.71
63819;BME280;49970;54.976;73.248;2024-02-26T02:42:24;101999.53;;;-8.59;89.94
63819;BME280;49970;54.976;73.248;2024-02-26T02:46:20;101994.41;;;-8.59;90.70
63819;BME280;49970;54.976;73.248;2024-02-26T02:49:52;102007.38;;;-8.56;89.99
63819;BME280;49970;54.976;73.248;2024-02-26T02:53:27;101985.13;;;-8.55;90.02
63819;BME280;49970;54.976;73.248;2024-02-26T02:56:59;101989.41;;;-8.54;90.10
63819;BME280;49970;54.976;73.248;2024-02-26T03:00:29;101968.41;;;-8.68;90.81
63819;BME280;49970;54.976;73.248;2024-02-26T03:04:01;101989.41;;;-8.54;90.61
63819;BME280;49970;54.976;73.248;2024-02-26T03:07:32;101965.97;;;-8.65;90.86
63819;BME280;49970;54.976;73.248;2024-02-26T03:11:02;101989.53;;;-8.51;89.68
63819;BME280;49970;54.976;73.248;2024-02-26T03:14:34;101987.66;;;-8.57;89.40
63819;BME280;49970;54.976;73.248;2024-02-26T03:18:05;101974.81;;;-8.57;90.32
63819;BME280;49970;54.976;73.248;2024-02-26T03:21:35;101968.97;;;-8.51;91.08
63819;BME280;49970;54.976;73.248;2024-02-26T03:25:07;101955.19;;;-8.53;90.27
63819;BME280;49970;54.976;73.248;2024-02-26T03:28:38;101961.28;;;-8.51;90.59
63819;BME280;49970;54.976;73.248;2024-02-26T03:32:33;101948.38;;;-8.52;90.06
63819;BME280;49970;54.976;73.248;2024-02-26T03:36:30;101953.47;;;-8.54;90.11
63819;BME280;49970;54.976;73.248;2024-02-26T03:40:27;101975.72;;;-8.55;90.39
63819;BME280;49970;54.976;73.248;2024-02-26T03:44:00;101963.47;;;-8.62;90.18
63819;BME280;49970;54.976;73.248;2024-02-26T03:47:32;101960.28;;;-8.55;89.58
63819;BME280;49970;54.976;73.248;2024-02-26T03:51:29;101946.72;;;-8.50;90.83
63819;BME280;49970;54.976;73.248;2024-02-26T03:55:24;101957.97;;;-8.47;89.45
63819;BME280;49970;54.976;73.248;2024-02-26T04:39:08;101955.94;;;-7.44;90.20
63819;BME280;49970;54.976;73.248;2024-02-26T04:41:34;101958.59;;;-7.43;89.87
63819;BME280;49970;54.976;73.248;2024-02-26T04:44:01;101964.75;;;-7.36;90.06
63819;BME280;49970;54.976;73.248;2024-02-26T04:46:27;101960.56;;;-7.33;89.86
63819;BME280;49970;54.976;73.248;2024-02-26T04:48:55;101960.56;;;-7.33;89.89
63819;BME280;49970;54.976;73.248;2024-02-26T04:51:21;101975.50;;;-7.21;89.96
63819;BME280;49970;54.976;73.248;2024-02-26T04:53:48;101964.47;;;-7.17;89.65
63819;BME280;49970;54.976;73.248;2024-02-26T04:56:14;101961.91;;;-7.15;90.60
63819;BME280;49970;54.976;73.248;2024-02-26T04:58:40;101972.41;;;-7.09;90.30
63819;BME280;49970;54.976;73.248;2024-02-26T05:01:07;101975.09;;;-7.05;89.99
63819;BME280;49970;54.976;73.248;2024-02-26T05:03:36;101958.06;;;-6.99;90.33
63819;BME280;49970;54.976;73.248;2024-02-26T05:06:02;101951.75;;;-7.11;90.33
63819;BME280;49970;54.976;73.248;2024-02-26T05:08:29;101980.59;;;-6.92;90.33
63819;BME280;49970;54.976;73.248;2024-02-26T05:10:56;101986.69;;;-6.89;90.11
63819;BME280;49970;54.976;73.248;2024-02-26T05:13:23;101990.22;;;-6.85;90.21
63819;BME280;49970;54.976;73.248;2024-02-26T05:15:50;101997.22;;;-6.81;90.09
63819;BME280;49970;54.976;73.248;2024-02-26T05:18:18;101986.00;;;-6.82;89.90
63819;BME280;49970;54.976;73.248;2024-02-26T05:20:45;101979.25;;;-6.78;90.27
63819;BME280;49970;54.976;73.248;2024-02-26T05:23:11;101987.09;;;-6.73;90.30
63819;BME280;49970;54.976;73.248;2024-02-26T05:25:38;101981.25;;;-6.68;89.84
63819;BME280;49970;54.976;73.248;2024-02-26T05:28:04;101977.81;;;-6.67;90.05
63819;BME280;49970;54.976;73.248;2024-02-26T05:30:31;101978.66;;;-6.68;89.78
63819;BME280;49970;54.976;73.248;2024-02-26T05:32:57;101965.78;;;-6.68;90.00
63819;BME280;49970;54.976;73.248;2024-02-26T05:35:24;101977.97;;;-6.61;90.11
63819;BME280;49970;54.976;73.248;2024-02-26T05:37:51;101972.78;;;-6.62;90.15
63819;BME280;49970;54.976;73.248;2024-02-26T05:40:18;101972.25;;;-6.49;89.97
63819;BME280;49970;54.976;73.248;2024-02-26T05:42:45;101978.47;;;-6.42;90.27
63819;BME280;49970;54.976;73.248;2024-02-26T05:45:12;101984.59;;;-6.37;90.09
63819;BME280;49970;54.976;73.248;2024-02-26T05:47:38;102005.41;;;-6.30;90.23
63819;BME280;49970;54.976;73.248;2024-02-26T05:50:11;101985.69;;;-6.28;89.77
63819;BME280;49970;54.976;73.248;2024-02-26T05:52:37;101979.06;;;-6.18;90.19
63819;BME280;49970;54.976;73.248;2024-02-26T05:55:07;101988.63;;;-6.14;90.02
63819;BME280;49970;54.976;73.248;2024-02-26T05:57:34;101987.84;;;-6.10;89.57
63819;BME280;49970;54.976;73.248;2024-02-26T06:00:01;101936.69;;;-6.28;89.51
63819;BME280;49970;54.976;73.248;2024-02-26T06:02:37;101988.06;;;-6.00;90.23
63819;BME280;49970;54.976;73.248;2024-02-26T06:05:05;101981.28;;;-5.97;89.73
63819;BME280;49970;54.976;73.248;2024-02-26T06:07:33;101988.25;;;-5.91;89.88
63819;BME280;49970;54.976;73.248;2024-02-26T06:09:59;101959.78;;;-5.97;89.29
63819;BME280;49970;54.976;73.248;2024-02-26T06:12:26;101971.06;;;-5.92;89.39
63819;BME280;49970;54.976;73.248;2024-02-26T06:14:54;101981.56;;;-5.82;89.52
63819;BME280;49970;54.976;73.248;2024-02-26T06:17:20;101986.81;;;-5.79;90.31
63819;BME280;49970;54.976;73.248;2024-02-26T06:19:46;101994.53;;;-5.80;89.58
63819;BME280;49970;54.976;73.248;2024-02-26T06:22:13;102003.16;;;-5.78;89.75
63819;BME280;49970;54.976;73.248;2024-02-26T06:24:39;102004.09;;;-5.76;90.15
63819;BME280;49970;54.976;73.248;2024-02-26T06:27:06;101994.63;;;-5.76;89.41
63819;BME280;49970;54.976;73.248;2024-02-26T06:29:32;101985.44;;;-5.63;89.66
63819;BME280;49970;54.976;73.248;2024-02-26T06:31:59;101968.50;;;-5.52;90.74
63819;BME280;49970;54.976;73.248;2024-02-26T06:34:45;101970.41;;;-5.41;90.22
63819;BME280;49970;54.976;73.248;2024-02-26T06:37:57;101976.53;;;-5.36;89.93
63819;BME280;49970;54.976;73.248;2024-02-26T06:40:23;101981.69;;;-5.36;89.98
63819;BME280;49970;54.976;73.248;2024-02-26T06:42:51;101986.09;;;-5.32;89.56
63819;BME280;49970;54.976;73.248;2024-02-26T06:45:18;101985.25;;;-5.31;89.49
63819;BME280;49970;54.976;73.248;2024-02-26T06:47:45;101961.97;;;-5.33;89.71
63819;BME280;49970;54.976;73.248;2024-02-26T06:50:12;101976.00;;;-5.20;89.79
63819;BME280;49970;54.976;73.248;2024-02-26T06:52:39;101976.97;;;-5.15;90.18
63819;BME280;49970;54.976;73.248;2024-02-26T06:55:06;101976.97;;;-5.15;89.41
63819;BME280;49970;54.976;73.248;2024-02-26T06:57:34;101972.63;;;-5.17;89.37
63819;BME280;49970;54.976;73.248;2024-02-26T07:00:00;101970.09;;;-5.14;89.72
63819;BME280;49970;54.976;73.248;2024-02-26T07:02:29;101973.59;;;-5.12;90.05
63819;BME280;49970;54.976;73.248;2024-02-26T07:04:56;101962.41;;;-5.11;89.59
63819;BME280;49970;54.976;73.248;2024-02-26T07:07:24;101961.59;;;-5.09;89.32
63819;BME280;49970;54.976;73.248;2024-02-26T07:09:51;101953.00;;;-5.09;89.29
63819;BME280;49970;54.976;73.248;2024-02-26T07:12:17;101953.84;;;-5.09;89.38
63819;BME280;49970;54.976;73.248;2024-02-26T07:14:45;101953.00;;;-5.08;89.04
63819;BME280;49970;54.976;73.248;2024-02-26T07:17:11;101949.56;;;-5.07;89.41
63819;BME280;49970;54.976;73.248;2024-02-26T07:19:38;101960.81;;;-5.05;89.83
63819;BME280;49970;54.976;73.248;2024-02-26T07:22:05;101958.25;;;-5.03;89.47
63819;BME280;49970;54.976;73.248;2024-02-26T07:24:31;101955.72;;;-5.02;89.93
63819;BME280;49970;54.976;73.248;2024-02-26T07:26:58;101957.41;;;-5.02;88.90
63819;BME280;49970;54.976;73.248;2024-02-26T07:29:24;101932.41;;;-5.05;88.96
63819;BME280;49970;54.976;73.248;2024-02-26T07:31:51;101934.28;;;-4.96;88.98
63819;BME280;49970;54.976;73.248;2024-02-26T07:34:17;101936.81;;;-4.99;89.04
63819;BME280;49970;54.976;73.248;2024-02-26T07:36:44;101939.47;;;-4.96;89.30
63819;BME280;49970;54.976;73.248;2024-02-26T07:39:30;101948.94;;;-4.96;88.98
63819;BME280;49970;54.976;73.248;2024-02-26T07:46:31;101952.53;;;-4.88;88.84
63819;BME280;49970;54.976;73.248;2024-02-26T07:50:03;101947.38;;;-4.85;88.83
63819;BME280;49970;54.976;73.248;2024-02-26T07:53:33;101966.41;;;-4.82;89.16
63819;BME280;49970;54.976;73.248;2024-02-26T07:57:05;101965.53;;;-4.84;89.30
63819;BME280;49970;54.976;73.248;2024-02-26T08:04:05;101957.06;;;-4.75;89.07
63819;BME280;49970;54.976;73.248;2024-02-26T08:07:36;101953.72;;;-4.69;89.29
63819;BME280;49970;54.976;73.248;2024-02-26T08:11:08;101945.00;;;-4.76;89.11
63819;BME280;49970;54.976;73.248;2024-02-26T08:14:39;101967.56;;;-4.67;88.56
63819;BME280;49970;54.976;73.248;2024-02-26T08:18:10;101954.66;;;-4.64;89.46
63819;BME280;49970;54.976;73.248;2024-02-26T08:21:41;101957.31;;;-4.61;88.90
63819;BME280;49970;54.976;73.248;2024-02-26T08:25:11;101952.13;;;-4.61;88.81
63819;BME280;49970;54.976;73.248;2024-02-26T08:28:43;101950.47;;;-4.59;88.89
63819;BME280;49970;54.976;73.248;2024-02-26T08:32:13;101960.81;;;-4.59;88.54
63819;BME280;49970;54.976;73.248;2024-02-26T08:35:44;101948.75;;;-4.57;89.13
63819;BME280;49970;54.976;73.248;2024-02-26T08:43:59;101948.91;;;-4.49;88.89
63819;BME280;49970;54.976;73.248;2024-02-26T08:47:31;101943.72;;;-4.48;89.60
63819;BME280;49970;54.976;73.248;2024-02-26T08:51:04;101951.47;;;-4.49;89.10
63819;BME280;49970;54.976;73.248;2024-02-26T08:54:34;101942.88;;;-4.48;89.38
63819;BME280;49970;54.976;73.248;2024-02-26T08:58:05;101942.94;;;-4.45;88.34
63819;BME280;49970;54.976;73.248;2024-02-26T09:01:41;101936.03;;;-4.46;88.55
63819;BME280;49970;54.976;73.248;2024-02-26T09:05:12;101936.06;;;-4.43;89.50
63819;BME280;49970;54.976;73.248;2024-02-26T09:09:07;101941.28;;;-4.40;88.88
63819;BME280;49970;54.976;73.248;2024-02-26T09:13:04;101933.31;;;-4.53;88.96
63819;BME280;49970;54.976;73.248;2024-02-26T09:16:36;101957.72;;;-4.38;89.24
63819;BME280;49970;54.976;73.248;2024-02-26T09:20:08;101956.84;;;-4.39;88.87
63819;BME280;49970;54.976;73.248;2024-02-26T09:23:45;101952.50;;;-4.40;89.35
63819;BME280;49970;54.976;73.248;2024-02-26T09:26:11;101946.44;;;-4.40;89.23
63819;BME280;49970;54.976;73.248;2024-02-26T09:28:37;101949.97;;;-4.37;88.78
63819;BME280;49970;54.976;73.248;2024-02-26T09:31:04;101939.63;;;-4.35;88.90
63819;BME280;49970;54.976;73.248;2024-02-26T09:33:32;101943.97;;;-4.34;89.41
63819;BME280;49970;54.976;73.248;2024-02-26T09:35:59;101949.19;;;-4.31;89.35
63819;BME280;49970;54.976;73.248;2024-02-26T09:38:27;101949.22;;;-4.30;89.07
63819;BME280;49970;54.976;73.248;2024-02-26T09:41:16;101942.38;;;-4.26;89.41
63819;BME280;49970;54.976;73.248;2024-02-26T09:45:59;101944.13;;;-4.23;89.36
63819;BME280;49970;54.976;73.248;2024-02-26T09:49:29;101943.28;;;-4.22;89.51
63819;BME280;49970;54.976;73.248;2024-02-26T09:53:00;101942.41;;;-4.23;88.75
63819;BME280;49970;54.976;73.248;2024-02-26T09:56:31;101937.25;;;-4.23;88.87
63819;BME280;49970;54.976;73.248;2024-02-26T09:59:17;101932.06;;;-4.24;89.00
63819;BME280;49970;54.976;73.248;2024-02-26T10:01:44;101928.53;;;-4.30;89.34
63819;BME280;49970;54.976;73.248;2024-02-26T10:04:11;101932.00;;;-4.28;88.95
63819;BME280;49970;54.976;73.248;2024-02-26T10:06:39;101943.31;;;-4.21;88.86
63819;BME280;49970;54.976;73.248;2024-02-26T10:09:09;101943.41;;;-4.16;89.29
63819;BME280;49970;54.976;73.248;2024-02-26T10:11:37;101937.41;;;-4.12;89.14
63819;BME280;49970;54.976;73.248;2024-02-26T10:14:04;101946.09;;;-4.09;88.55
63819;BME280;49970;54.976;73.248;2024-02-26T10:16:31;101940.06;;;-4.08;89.32
63819;BME280;49970;54.976;73.248;2024-02-26T10:18:59;101950.50;;;-4.02;89.61
63819;BME280;49970;54.976;73.248;2024-02-26T10:21:26;101938.47;;;-3.99;89.72
63819;BME280;49970;54.976;73.248;2024-02-26T10:23:53;101948.00;;;-3.97;89.02
63819;BME280;49970;54.976;73.248;2024-02-26T10:26:20;101938.53;;;-3.96;88.90
63819;BME280;49970;54.976;73.248;2024-02-26T10:29:06;101944.56;;;-3.94;88.99
63819;BME280;49970;54.976;73.248;2024-02-26T10:31:53;101935.09;;;-3.95;89.14
63819;BME280;49970;54.976;73.248;2024-02-26T10:34:20;101935.88;;;-3.99;88.86
63819;BME280;49970;54.976;73.248;2024-02-26T10:36:47;101940.28;;;-3.94;88.89
63819;BME280;49970;54.976;73.248;2024-02-26T10:39:13;101932.47;;;-3.97;88.55
63819;BME280;49970;54.976;73.248;2024-02-26T10:41:44;101939.44;;;-3.93;88.78
63819;BME280;49970;54.976;73.248;2024-02-26T10:44:12;101931.56;;;-3.99;88.92
63819;BME280;49970;54.976;73.248;2024-02-26T10:46:58;101942.00;;;-3.94;88.53
63819;BME280;49970;54.976;73.248;2024-02-26T10:49:25;101950.66;;;-3.92;88.63
63819;BME280;49970;54.976;73.248;2024-02-26T10:51:56;101941.94;;;-3.99;88.96
63819;BME280;49970;54.976;73.248;2024-02-26T10:54:29;101952.38;;;-3.93;89.15
63819;BME280;49970;54.976;73.248;2024-02-26T10:56:56;101946.31;;;-3.93;88.86
63819;BME280;49970;54.976;73.248;2024-02-26T10:59:26;101954.06;;;-3.95;89.06
63819;BME280;49970;54.976;73.248;2024-02-26T11:01:54;101947.13;;;-3.97;88.91
63819;BME280;49970;54.976;73.248;2024-02-26T11:04:21;101948.03;;;-3.95;88.74
63819;BME280;49970;54.976;73.248;2024-02-26T11:06:49;101943.59;;;-4.03;88.63
63819;BME280;49970;54.976;73.248;2024-02-26T11:09:16;101947.09;;;-3.99;88.65
63819;BME280;49970;54.976;73.248;2024-02-26T11:11:44;101927.88;;;-4.15;88.85
63819;BME280;49970;54.976;73.248;2024-02-26T11:14:11;101947.03;;;-4.04;89.06
63819;BME280;49970;54.976;73.248;2024-02-26T11:16:39;101944.44;;;-4.05;88.69
63819;BME280;49970;54.976;73.248;2024-02-26T11:19:08;101949.63;;;-4.04;89.33
63819;BME280;49970;54.976;73.248;2024-02-26T11:21:36;101953.88;;;-4.06;89.04
63819;BME280;49970;54.976;73.248;2024-02-26T11:24:12;101953.03;;;-4.06;89.10
63819;BME280;49970;54.976;73.248;2024-02-26T11:26:50;101953.00;;;-4.08;89.18
63819;BME280;49970;54.976;73.248;2024-02-26T11:29:22;101950.44;;;-4.08;88.76
63819;BME280;49970;54.976;73.248;2024-02-26T11:31:50;101947.78;;;-4.12;89.19
63819;BME280;49970;54.976;73.248;2024-02-26T11:34:17;101952.09;;;-4.10;89.29
63819;BME280;49970;54.976;73.248;2024-02-26T11:36:43;101950.34;;;-4.14;88.55
63819;BME280;49970;54.976;73.248;2024-02-26T11:39:11;101952.94;;;-4.14;89.26
63819;BME280;49970;54.976;73.248;2024-02-26T11:41:39;101952.88;;;-4.17;89.28
63819;BME280;49970;54.976;73.248;2024-02-26T11:44:05;101954.59;;;-4.17;88.57
63819;BME280;49970;54.976;73.248;2024-02-26T11:46:38;101950.22;;;-4.21;88.76
63819;BME280;49970;54.976;73.248;2024-02-26T11:51:53;101960.50;;;-4.24;89.08
63819;BME280;49970;54.976;73.248;2024-02-26T11:57:46;101959.59;;;-4.27;88.92
63819;BME280;49970;54.976;73.248;2024-02-26T12:01:37;101969.91;;;-4.30;89.32
63819;BME280;49970;54.976;73.248;2024-02-26T12:08:07;101969.88;;;-4.33;89.11
63819;BME280;49970;54.976;73.248;2024-02-26T12:10:39;101965.50;;;-4.35;89.09
63819;BME280;49970;54.976;73.248;2024-02-26T12:13:29;101973.25;;;-4.37;89.00
63819;BME280;49970;54.976;73.248;2024-02-26T12:17:26;101961.09;;;-4.41;88.68
63819;BME280;49970;54.976;73.248;2024-02-26T12:24:37;101953.94;;;-4.56;88.80
63819;BME280;49970;54.976;73.248;2024-02-26T12:28:09;101973.09;;;-4.46;88.48
63819;BME280;49970;54.976;73.248;2024-02-26T12:31:52;101987.69;;;-4.48;88.93
63819;BME280;49970;54.976;73.248;2024-02-26T12:35:13;101992.84;;;-4.49;88.86
63819;BME280;49970;54.976;73.248;2024-02-26T12:37:42;101998.03;;;-4.49;88.99
63819;BME280;49970;54.976;73.248;2024-02-26T12:40:09;101999.69;;;-4.53;89.62
63819;BME280;49970;54.976;73.248;2024-02-26T12:42:36;102004.06;;;-4.51;89.43
63819;BME280;49970;54.976;73.248;2024-02-26T12:45:07;102002.28;;;-4.52;89.27
63819;BME280;49970;54.976;73.248;2024-02-26T12:47:39;102007.44;;;-4.52;90.17
63819;BME280;49970;54.976;73.248;2024-02-26T12:50:21;102004.84;;;-4.55;90.18
63819;BME280;49970;54.976;73.248;2024-02-26T12:52:48;102015.19;;;-4.53;89.98
63819;BME280;49970;54.976;73.248;2024-02-26T12:55:19;102019.50;;;-4.54;90.58
63819;BME280;49970;54.976;73.248;2024-02-26T12:57:46;102014.31;;;-4.55;90.64
63819;BME280;49970;54.976;73.248;2024-02-26T13:00:24;102012.53;;;-4.58;90.97
63819;BME280;49970;54.976;73.248;2024-02-26T13:02:51;102009.88;;;-4.62;90.64
63819;BME280;49970;54.976;73.248;2024-02-26T13:05:38;102011.53;;;-4.64;91.15
63819;BME280;49970;54.976;73.248;2024-02-26T13:08:05;102028.03;;;-4.59;91.37
63819;BME280;49970;54.976;73.248;2024-02-26T13:10:31;102018.50;;;-4.60;91.37
63819;BME280;49970;54.976;73.248;2024-02-26T13:13:05;102026.22;;;-4.63;91.89
63819;BME280;49970;54.976;73.248;2024-02-26T13:15:32;102024.53;;;-4.61;91.77
63819;BME280;49970;54.976;73.248;2024-02-26T13:18:18;102029.69;;;-4.63;91.69
63819;BME280;49970;54.976;73.248;2024-02-26T13:21:10;102034.00;;;-4.62;92.27
63819;BME280;49970;54.976;73.248;2024-02-26T13:24:59;102026.16;;;-4.68;92.05
63819;BME280;49970;54.976;73.248;2024-02-26T13:27:42;102032.19;;;-4.66;92.27
63819;BME280;49970;54.976;73.248;2024-02-26T13:30:12;102027.88;;;-4.67;92.47
63819;BME280;49970;54.976;73.248;2024-02-26T13:32:40;102019.25;;;-4.67;92.67
63819;BME280;49970;54.976;73.248;2024-02-26T13:35:11;102015.81;;;-4.68;92.36
63819;BME280;49970;54.976;73.248;2024-02-26T13:37:39;102027.84;;;-4.68;92.33
63819;BME280;49970;54.976;73.248;2024-02-26T13:40:07;102014.03;;;-4.70;92.91
63819;BME280;49970;54.976;73.248;2024-02-26T13:42:39;102026.16;;;-4.68;93.16
63819;BME280;49970;54.976;73.248;2024-02-26T13:45:24;102019.22;;;-4.69;92.83
63819;BME280;49970;54.976;73.248;2024-02-26T13:47:54;102011.41;;;-4.72;93.48
63819;BME280;49970;54.976;73.248;2024-02-26T13:50:27;102017.47;;;-4.70;92.80
63819;BME280;49970;54.976;73.248;2024-02-26T13:53:04;101982.75;;;-4.84;93.22
63819;BME280;49970;54.976;73.248;2024-02-26T13:56:00;102001.94;;;-4.71;93.24
63819;BME280;49970;54.976;73.248;2024-02-26T13:58:28;102008.84;;;-4.70;93.63
63819;BME280;49970;54.976;73.248;2024-02-26T14:00:55;102000.16;;;-4.76;93.16
63819;BME280;49970;54.976;73.248;2024-02-26T14:03:22;102010.53;;;-4.72;93.80
63819;BME280;49970;54.976;73.248;2024-02-26T14:05:49;102007.06;;;-4.73;93.79
63819;BME280;49970;54.976;73.248;2024-02-26T14:08:35;102003.59;;;-4.75;93.44
63819;BME280;49970;54.976;73.248;2024-02-26T14:11:38;101997.56;;;-4.76;93.36
63819;BME280;49970;54.976;73.248;2024-02-26T14:14:06;102001.00;;;-4.75;94.29
63819;BME280;49970;54.976;73.248;2024-02-26T14:16:32;102000.97;;;-4.77;94.10
63819;BME280;49970;54.976;73.248;2024-02-26T14:18:58;102001.88;;;-4.76;94.22
63819;BME280;49970;54.976;73.248;2024-02-26T14:21:25;101997.56;;;-4.76;94.29
63819;BME280;49970;54.976;73.248;2024-02-26T14:23:53;101999.28;;;-4.76;94.05
63819;BME280;49970;54.976;73.248;2024-02-26T14:26:19;101992.41;;;-4.74;93.80
63819;BME280;49970;54.976;73.248;2024-02-26T14:28:46;102001.97;;;-4.70;94.32
63819;BME280;49970;54.976;73.248;2024-02-26T14:31:12;101994.22;;;-4.70;94.69
63819;BME280;49970;54.976;73.248;2024-02-26T14:33:39;101993.34;;;-4.69;94.72
63819;BME280;49970;54.976;73.248;2024-02-26T14:36:08;101993.34;;;-4.70;95.02
63819;BME280;49970;54.976;73.248;2024-02-26T14:38:34;102002.03;;;-4.67;94.32
63819;BME280;49970;54.976;73.248;2024-02-26T14:41:01;102003.75;;;-4.66;94.26
63819;BME280;49970;54.976;73.248;2024-02-26T14:43:29;102001.97;;;-4.68;94.33
63819;BME280;49970;54.976;73.248;2024-02-26T14:45:57;101990.78;;;-4.69;94.87
63819;BME280;49970;54.976;73.248;2024-02-26T14:48:23;101995.94;;;-4.69;94.76
63819;BME280;49970;54.976;73.248;2024-02-26T14:50:51;101995.94;;;-4.69;94.56
63819;BME280;49970;54.976;73.248;2024-02-26T14:53:17;101983.78;;;-4.76;94.50
63819;BME280;49970;54.976;73.248;2024-02-26T14:55:44;101961.22;;;-4.83;94.38
63819;BME280;49970;54.976;73.248;2024-02-26T14:58:10;101989.03;;;-4.70;94.76
63819;BME280;49970;54.976;73.248;2024-02-26T15:00:38;101982.13;;;-4.71;94.72
63819;BME280;49970;54.976;73.248;2024-02-26T15:03:05;101983.88;;;-4.70;94.72
63819;BME280;49970;54.976;73.248;2024-02-26T15:05:32;101988.16;;;-4.72;94.72
63819;BME280;49970;54.976;73.248;2024-02-26T15:07:59;101982.94;;;-4.73;94.57
63819;BME280;49970;54.976;73.248;2024-02-26T15:10:25;101976.03;;;-4.74;95.06
63819;BME280;49970;54.976;73.248;2024-02-26T15:12:52;101970.00;;;-4.75;94.94
63819;BME280;49970;54.976;73.248;2024-02-26T15:15:21;101975.19;;;-4.73;95.26
63819;BME280;49970;54.976;73.248;2024-02-26T15:17:48;101960.44;;;-4.81;94.64
63819;BME280;49970;54.976;73.248;2024-02-26T15:20:18;101968.19;;;-4.79;94.56
63819;BME280;49970;54.976;73.248;2024-02-26T15:22:45;101971.63;;;-4.80;94.60
63819;BME280;49970;54.976;73.248;2024-02-26T15:25:12;101968.13;;;-4.82;94.89
63819;BME280;49970;54.976;73.248;2024-02-26T15:27:39;101971.59;;;-4.82;95.02
63819;BME280;49970;54.976;73.248;2024-02-26T15:30:05;101981.91;;;-4.82;95.61
63819;BME280;49970;54.976;73.248;2024-02-26T15:32:32;101962.88;;;-4.87;95.24
63819;BME280;49970;54.976;73.248;2024-02-26T15:34:58;101973.38;;;-4.79;95.64
63819;BME280;49970;54.976;73.248;2024-02-26T15:37:25;101977.69;;;-4.78;94.68
63819;BME280;49970;54.976;73.248;2024-02-26T15:39:51;101971.63;;;-4.80;94.94